sensor_id;sensor_type;location;lat;lon;timestamp;P1;durP1;ratioP1;P2;durP2;ratioP2
7905;SDS011;13291;40.472;-3.878;2023-05-16T00:01:57;1.13;;;0.80;;
7905;SDS011;13291;40.472;-3.878;2023-05-16T00:04:24;2.20;;;0.93;;
7905;SDS011;13291;40.472;-3.878;2023-05-16T00:06:51;1.47;;;1.00;;
7905;SDS011;13291;40.472;-3.878;2023-05-16T00:09:20;1.63;;;0.80;;
7905;SDS011;13291;40.472;-3.878;2023-05-16T00:11:47;1.60;;;0.80;;
7905;SDS011;13291;40.472;-3.878;2023-05-16T00:14:14;2.20;;;1.00;;
7905;SDS011;13291;40.472;-3.878;2023-05-16T00:16:41;2.10;;;1.20;;
7905;SDS011;13291;40.472;-3.878;2023-05-16T00:19:08;1.10;;;0.70;;
7905;SDS011;13291;40.472;-3.878;2023-05-16T00:21:35;2.07;;;1.20;;
7905;SDS011;13291;40.472;-3.878;2023-05-16T00:24:02;1.20;;;0.90;;
7905;SDS011;13291;40.472;-3.878;2023-05-16T00:26:31;1.10;;;0.70;;
7905;SDS011;13291;40.472;-3.878;2023-05-16T00:28:58;0.90;;;0.80;;
7905;SDS011;13291;40.472;-3.878;2023-05-16T00:31:26;1.33;;;0.80;;
7905;SDS011;13291;40.472;-3.878;2023-05-16T00:33:53;3.00;;;1.10;;
7905;SDS011;13291;40.472;-3.878;2023-05-16T00:36:20;1.40;;;1.10;;
7905;SDS011;13291;40.472;-3.878;2023-05-16T00:38:47;1.53;;;1.00;;
7905;SDS011;13291;40.472;-3.878;2023-05-16T00:41:16;1.37;;;1.10;;
7905;SDS011;13291;40.472;-3.878;2023-05-16T00:43:44;1.30;;;1.10;;
7905;SDS011;13291;40.472;-3.878;2023-05-16T00:46:11;1.80;;;1.00;;
7905;SDS011;13291;40.472;-3.878;2023-05-16T00:48:39;1.33;;;1.10;;
7905;SDS011;13291;40.472;-3.878;2023-05-16T00:51:06;1.40;;;1.13;;
7905;SDS011;13291;40.472;-3.878;2023-05-16T00:53:34;1.67;;;1.10;;
7905;SDS011;13291;40.472;-3.878;2023-05-16T00:56:01;1.60;;;1.00;;
7905;SDS011;13291;40.472;-3.878;2023-05-16T00:58:28;1.20;;;0.80;;
7905;SDS011;13291;40.472;-3.878;2023-05-16T01:00:57;1.10;;;0.77;;
7905;SDS011;13291;40.472;-3.878;2023-05-16T01:03:26;1.30;;;0.90;;
7905;SDS011;13291;40.472;-3.878;2023-05-16T01:05:53;1.20;;;0.80;;
7905;SDS011;13291;40.472;-3.878;2023-05-16T01:08:20;2.30;;;0.80;;
7905;SDS011;13291;40.472;-3.878;2023-05-16T01:10:49;1.43;;;0.90;;
7905;SDS011;13291;40.472;-3.878;2023-05-16T01:13:26;1.53;;;0.90;;
7905;SDS011;13291;40.472;-3.878;2023-05-16T01:16:08;3.33;;;0.80;;
7905;SDS011;13291;40.472;-3.878;2023-05-16T01:18:41;1.47;;;0.70;;
7905;SDS011;13291;40.472;-3.878;2023-05-16T01:21:11;1.60;;;0.80;;
7905;SDS011;13291;40.472;-3.878;2023-05-16T01:23:50;1.20;;;1.00;;
7905;SDS011;13291;40.472;-3.878;2023-05-16T01:26:23;1.70;;;1.00;;
7905;SDS011;13291;40.472;-3.878;2023-05-16T01:28:53;1.43;;;1.13;;
7905;SDS011;13291;40.472;-3.878;2023-05-16T01:31:21;1.30;;;1.00;;
7905;SDS011;13291;40.472;-3.878;2023-05-16T01:33:49;1.33;;;0.90;;
7905;SDS011;13291;40.472;-3.878;2023-05-16T01:36:19;1.10;;;0.77;;
7905;SDS011;13291;40.472;-3.878;2023-05-16T01:38:53;1.43;;;0.70;;
7905;SDS011;13291;40.472;-3.878;2023-05-16T01:41:29;1.43;;;0.70;;
7905;SDS011;13291;40.472;-3.878;2023-05-16T01:44:15;1.10;;;0.73;;
7905;SDS011;13291;40.472;-3.878;2023-05-16T01:46:47;1.60;;;0.73;;
7905;SDS011;13291;40.472;-3.878;2023-05-16T01:49:21;1.20;;;0.93;;
7905;SDS011;13291;40.472;-3.878;2023-05-16T01:51:53;1.37;;;0.87;;
7905;SDS011;13291;40.472;-3.878;2023-05-16T01:54:25;1.90;;;1.20;;
7905;SDS011;13291;40.472;-3.878;2023-05-16T01:56:58;1.40;;;1.10;;
7905;SDS011;13291;40.472;-3.878;2023-05-16T01:59:26;1.57;;;1.00;;
7905;SDS011;13291;40.472;-3.878;2023-05-16T02:01:54;1.00;;;0.80;;
7905;SDS011;13291;40.472;-3.878;2023-05-16T02:04:22;1.00;;;0.80;;
7905;SDS011;13291;40.472;-3.878;2023-05-16T02:06:49;1.07;;;0.80;;
7905;SDS011;13291;40.472;-3.878;2023-05-16T02:09:17;1.47;;;0.80;;
7905;SDS011;13291;40.472;-3.878;2023-05-16T02:11:44;0.80;;;0.70;;
7905;SDS011;13291;40.472;-3.878;2023-05-16T02:14:13;1.57;;;1.10;;
7905;SDS011;13291;40.472;-3.878;2023-05-16T02:16:40;1.13;;;1.00;;
7905;SDS011;13291;40.472;-3.878;2023-05-16T02:19:06;2.03;;;0.77;;
7905;SDS011;13291;40.472;-3.878;2023-05-16T02:21:33;1.13;;;0.80;;
7905;SDS011;13291;40.472;-3.878;2023-05-16T02:24:00;1.00;;;0.80;;
7905;SDS011;13291;40.472;-3.878;2023-05-16T02:26:27;2.20;;;0.77;;
7905;SDS011;13291;40.472;-3.878;2023-05-16T02:28:54;0.80;;;0.70;;
7905;SDS011;13291;40.472;-3.878;2023-05-16T02:31:26;1.40;;;0.80;;
7905;SDS011;13291;40.472;-3.878;2023-05-16T02:33:53;0.90;;;0.80;;
7905;SDS011;13291;40.472;-3.878;2023-05-16T02:36:20;1.47;;;0.80;;
7905;SDS011;13291;40.472;-3.878;2023-05-16T02:38:47;1.43;;;0.90;;
7905;SDS011;13291;40.472;-3.878;2023-05-16T02:41:14;0.90;;;0.80;;
7905;SDS011;13291;40.472;-3.878;2023-05-16T02:43:41;1.73;;;1.00;;
7905;SDS011;13291;40.472;-3.878;2023-05-16T02:46:19;1.30;;;0.87;;
7905;SDS011;13291;40.472;-3.878;2023-05-16T02:48:48;1.20;;;0.90;;
7905;SDS011;13291;40.472;-3.878;2023-05-16T02:51:16;2.13;;;0.80;;
7905;SDS011;13291;40.472;-3.878;2023-05-16T02:53:43;0.90;;;0.73;;
7905;SDS011;13291;40.472;-3.878;2023-05-16T02:56:09;1.23;;;0.77;;
7905;SDS011;13291;40.472;-3.878;2023-05-16T02:58:36;1.33;;;0.77;;
7905;SDS011;13291;40.472;-3.878;2023-05-16T03:01:03;2.60;;;0.97;;
7905;SDS011;13291;40.472;-3.878;2023-05-16T03:03:30;7.57;;;0.90;;
7905;SDS011;13291;40.472;-3.878;2023-05-16T03:06:01;1.57;;;0.60;;
7905;SDS011;13291;40.472;-3.878;2023-05-16T03:08:28;1.40;;;0.60;;
7905;SDS011;13291;40.472;-3.878;2023-05-16T03:10:55;5.20;;;1.47;;
7905;SDS011;13291;40.472;-3.878;2023-05-16T03:13:22;5.00;;;1.33;;
7905;SDS011;13291;40.472;-3.878;2023-05-16T03:15:49;2.03;;;0.80;;
7905;SDS011;13291;40.472;-3.878;2023-05-16T03:18:16;2.30;;;0.90;;
7905;SDS011;13291;40.472;-3.878;2023-05-16T03:20:43;1.00;;;0.70;;
7905;SDS011;13291;40.472;-3.878;2023-05-16T03:23:11;1.90;;;1.33;;
7905;SDS011;13291;40.472;-3.878;2023-05-16T03:25:38;1.80;;;0.80;;
7905;SDS011;13291;40.472;-3.878;2023-05-16T03:28:07;1.37;;;0.77;;
7905;SDS011;13291;40.472;-3.878;2023-05-16T03:30:34;1.83;;;0.77;;
7905;SDS011;13291;40.472;-3.878;2023-05-16T03:33:01;1.57;;;0.80;;
7905;SDS011;13291;40.472;-3.878;2023-05-16T03:35:28;2.50;;;1.10;;
7905;SDS011;13291;40.472;-3.878;2023-05-16T03:37:56;4.30;;;1.33;;
7905;SDS011;13291;40.472;-3.878;2023-05-16T03:40:24;1.50;;;0.70;;
7905;SDS011;13291;40.472;-3.878;2023-05-16T03:42:51;2.47;;;0.83;;
7905;SDS011;13291;40.472;-3.878;2023-05-16T03:45:18;1.30;;;0.80;;
7905;SDS011;13291;40.472;-3.878;2023-05-16T03:47:47;0.90;;;0.77;;
7905;SDS011;13291;40.472;-3.878;2023-05-16T03:50:15;1.83;;;1.47;;
7905;SDS011;13291;40.472;-3.878;2023-05-16T03:52:42;1.77;;;0.80;;
7905;SDS011;13291;40.472;-3.878;2023-05-16T03:55:09;2.43;;;0.70;;
7905;SDS011;13291;40.472;-3.878;2023-05-16T03:57:39;1.40;;;0.80;;
7905;SDS011;13291;40.472;-3.878;2023-05-16T04:00:07;1.30;;;0.90;;
7905;SDS011;13291;40.472;-3.878;2023-05-16T04:02:36;1.40;;;0.70;;
7905;SDS011;13291;40.472;-3.878;2023-05-16T04:05:05;1.93;;;1.13;;
7905;SDS011;13291;40.472;-3.878;2023-05-16T04:07:33;1.40;;;0.80;;
7905;SDS011;13291;40.472;-3.878;2023-05-16T04:10:00;1.23;;;0.70;;
7905;SDS011;13291;40.472;-3.878;2023-05-16T04:12:27;1.03;;;0.70;;
7905;SDS011;13291;40.472;-3.878;2023-05-16T04:14:55;2.37;;;0.70;;
7905;SDS011;13291;40.472;-3.878;2023-05-16T04:17:22;1.10;;;0.83;;
7905;SDS011;13291;40.472;-3.878;2023-05-16T04:19:49;1.73;;;1.10;;
7905;SDS011;13291;40.472;-3.878;2023-05-16T04:22:16;1.90;;;1.00;;
7905;SDS011;13291;40.472;-3.878;2023-05-16T04:24:43;1.37;;;1.07;;
7905;SDS011;13291;40.472;-3.878;2023-05-16T04:27:10;1.87;;;1.07;;
7905;SDS011;13291;40.472;-3.878;2023-05-16T04:29:36;1.63;;;0.80;;
7905;SDS011;13291;40.472;-3.878;2023-05-16T04:32:05;1.80;;;0.93;;
7905;SDS011;13291;40.472;-3.878;2023-05-16T04:34:33;1.33;;;0.80;;
7905;SDS011;13291;40.472;-3.878;2023-05-16T04:37:01;1.10;;;0.90;;
7905;SDS011;13291;40.472;-3.878;2023-05-16T04:39:29;2.00;;;0.77;;
7905;SDS011;13291;40.472;-3.878;2023-05-16T04:41:56;1.80;;;0.93;;
7905;SDS011;13291;40.472;-3.878;2023-05-16T04:44:24;1.20;;;0.97;;
7905;SDS011;13291;40.472;-3.878;2023-05-16T04:46:51;2.87;;;1.03;;
7905;SDS011;13291;40.472;-3.878;2023-05-16T04:49:20;1.80;;;0.87;;
7905;SDS011;13291;40.472;-3.878;2023-05-16T04:51:47;1.03;;;0.90;;
7905;SDS011;13291;40.472;-3.878;2023-05-16T04:54:14;1.43;;;1.00;;
7905;SDS011;13291;40.472;-3.878;2023-05-16T04:56:41;1.37;;;0.90;;
7905;SDS011;13291;40.472;-3.878;2023-05-16T04:59:08;3.40;;;1.07;;
7905;SDS011;13291;40.472;-3.878;2023-05-16T05:01:35;1.73;;;1.27;;
7905;SDS011;13291;40.472;-3.878;2023-05-16T05:04:03;1.60;;;0.90;;
7905;SDS011;13291;40.472;-3.878;2023-05-16T05:06:32;1.07;;;0.90;;
7905;SDS011;13291;40.472;-3.878;2023-05-16T05:08:59;1.20;;;0.80;;
7905;SDS011;13291;40.472;-3.878;2023-05-16T05:11:25;1.40;;;0.93;;
7905;SDS011;13291;40.472;-3.878;2023-05-16T05:13:52;1.73;;;0.87;;
7905;SDS011;13291;40.472;-3.878;2023-05-16T05:16:19;2.63;;;1.10;;
7905;SDS011;13291;40.472;-3.878;2023-05-16T05:18:46;1.40;;;0.90;;
7905;SDS011;13291;40.472;-3.878;2023-05-16T05:21:13;1.57;;;1.00;;
7905;SDS011;13291;40.472;-3.878;2023-05-16T05:23:41;1.73;;;1.20;;
7905;SDS011;13291;40.472;-3.878;2023-05-16T05:26:08;1.53;;;0.90;;
7905;SDS011;13291;40.472;-3.878;2023-05-16T05:28:35;2.47;;;1.10;;
7905;SDS011;13291;40.472;-3.878;2023-05-16T05:31:03;1.63;;;1.00;;
7905;SDS011;13291;40.472;-3.878;2023-05-16T05:33:30;3.20;;;1.27;;
7905;SDS011;13291;40.472;-3.878;2023-05-16T05:35:57;1.63;;;1.27;;
7905;SDS011;13291;40.472;-3.878;2023-05-16T05:38:24;4.50;;;1.13;;
7905;SDS011;13291;40.472;-3.878;2023-05-16T05:40:52;2.20;;;1.23;;
7905;SDS011;13291;40.472;-3.878;2023-05-16T05:43:19;2.83;;;1.60;;
7905;SDS011;13291;40.472;-3.878;2023-05-16T05:45:46;2.53;;;1.30;;
7905;SDS011;13291;40.472;-3.878;2023-05-16T05:48:13;2.57;;;1.47;;
7905;SDS011;13291;40.472;-3.878;2023-05-16T05:50:40;1.67;;;1.20;;
7905;SDS011;13291;40.472;-3.878;2023-05-16T05:53:07;2.50;;;1.43;;
7905;SDS011;13291;40.472;-3.878;2023-05-16T05:55:34;2.40;;;1.10;;
7905;SDS011;13291;40.472;-3.878;2023-05-16T05:58:02;2.37;;;1.50;;
7905;SDS011;13291;40.472;-3.878;2023-05-16T06:00:29;2.37;;;1.20;;
7905;SDS011;13291;40.472;-3.878;2023-05-16T06:02:56;2.10;;;1.20;;
7905;SDS011;13291;40.472;-3.878;2023-05-16T06:05:23;2.93;;;1.60;;
7905;SDS011;13291;40.472;-3.878;2023-05-16T06:07:50;2.57;;;1.50;;
7905;SDS011;13291;40.472;-3.878;2023-05-16T06:10:17;4.10;;;2.00;;
7905;SDS011;13291;40.472;-3.878;2023-05-16T06:12:44;2.60;;;1.57;;
7905;SDS011;13291;40.472;-3.878;2023-05-16T06:15:12;2.50;;;1.30;;
7905;SDS011;13291;40.472;-3.878;2023-05-16T06:17:39;3.00;;;1.50;;
7905;SDS011;13291;40.472;-3.878;2023-05-16T06:20:07;2.17;;;1.43;;
7905;SDS011;13291;40.472;-3.878;2023-05-16T06:22:34;2.23;;;1.47;;
7905;SDS011;13291;40.472;-3.878;2023-05-16T06:25:01;3.67;;;1.53;;
7905;SDS011;13291;40.472;-3.878;2023-05-16T06:27:27;2.40;;;1.50;;
7905;SDS011;13291;40.472;-3.878;2023-05-16T06:29:54;4.90;;;2.00;;
7905;SDS011;13291;40.472;-3.878;2023-05-16T06:32:23;3.77;;;1.77;;
7905;SDS011;13291;40.472;-3.878;2023-05-16T06:34:50;4.33;;;1.80;;
7905;SDS011;13291;40.472;-3.878;2023-05-16T06:37:16;3.63;;;1.50;;
7905;SDS011;13291;40.472;-3.878;2023-05-16T06:39:43;2.83;;;1.90;;
7905;SDS011;13291;40.472;-3.878;2023-05-16T06:42:10;2.30;;;1.63;;
7905;SDS011;13291;40.472;-3.878;2023-05-16T06:44:38;2.07;;;1.33;;
7905;SDS011;13291;40.472;-3.878;2023-05-16T06:47:05;2.57;;;1.60;;
7905;SDS011;13291;40.472;-3.878;2023-05-16T06:49:33;3.90;;;2.37;;
7905;SDS011;13291;40.472;-3.878;2023-05-16T06:52:00;3.87;;;1.60;;
7905;SDS011;13291;40.472;-3.878;2023-05-16T06:54:27;2.27;;;1.47;;
7905;SDS011;13291;40.472;-3.878;2023-05-16T06:56:55;5.73;;;1.53;;
7905;SDS011;13291;40.472;-3.878;2023-05-16T06:59:21;3.03;;;1.63;;
7905;SDS011;13291;40.472;-3.878;2023-05-16T07:01:48;2.43;;;1.30;;
7905;SDS011;13291;40.472;-3.878;2023-05-16T07:04:15;3.10;;;1.70;;
7905;SDS011;13291;40.472;-3.878;2023-05-16T07:06:43;3.00;;;1.57;;
7905;SDS011;13291;40.472;-3.878;2023-05-16T07:09:10;5.23;;;1.47;;
7905;SDS011;13291;40.472;-3.878;2023-05-16T07:11:38;3.10;;;1.87;;
7905;SDS011;13291;40.472;-3.878;2023-05-16T07:14:05;4.20;;;1.63;;
7905;SDS011;13291;40.472;-3.878;2023-05-16T07:16:32;4.70;;;2.13;;
7905;SDS011;13291;40.472;-3.878;2023-05-16T07:18:59;2.30;;;1.30;;
7905;SDS011;13291;40.472;-3.878;2023-05-16T07:21:25;2.20;;;1.70;;
7905;SDS011;13291;40.472;-3.878;2023-05-16T07:23:54;3.33;;;2.03;;
7905;SDS011;13291;40.472;-3.878;2023-05-16T07:26:21;2.03;;;1.43;;
7905;SDS011;13291;40.472;-3.878;2023-05-16T07:28:48;3.77;;;1.60;;
7905;SDS011;13291;40.472;-3.878;2023-05-16T07:31:16;3.80;;;2.07;;
7905;SDS011;13291;40.472;-3.878;2023-05-16T07:33:43;7.40;;;2.70;;
7905;SDS011;13291;40.472;-3.878;2023-05-16T07:36:11;2.93;;;1.80;;
7905;SDS011;13291;40.472;-3.878;2023-05-16T07:38:38;2.40;;;1.87;;
7905;SDS011;13291;40.472;-3.878;2023-05-16T07:41:07;2.73;;;1.33;;
7905;SDS011;13291;40.472;-3.878;2023-05-16T07:43:33;2.53;;;1.77;;
7905;SDS011;13291;40.472;-3.878;2023-05-16T07:46:01;3.33;;;2.03;;
7905;SDS011;13291;40.472;-3.878;2023-05-16T07:48:28;4.10;;;1.70;;
7905;SDS011;13291;40.472;-3.878;2023-05-16T07:50:54;3.60;;;1.83;;
7905;SDS011;13291;40.472;-3.878;2023-05-16T07:53:21;3.07;;;1.60;;
7905;SDS011;13291;40.472;-3.878;2023-05-16T07:55:48;3.37;;;1.93;;
7905;SDS011;13291;40.472;-3.878;2023-05-16T07:58:17;4.27;;;2.03;;
7905;SDS011;13291;40.472;-3.878;2023-05-16T08:00:44;3.70;;;2.10;;
7905;SDS011;13291;40.472;-3.878;2023-05-16T08:03:11;2.97;;;1.50;;
7905;SDS011;13291;40.472;-3.878;2023-05-16T08:05:38;2.67;;;1.77;;
7905;SDS011;13291;40.472;-3.878;2023-05-16T08:08:05;2.27;;;1.80;;
7905;SDS011;13291;40.472;-3.878;2023-05-16T08:10:32;1.80;;;1.40;;
7905;SDS011;13291;40.472;-3.878;2023-05-16T08:12:59;5.83;;;1.90;;
7905;SDS011;13291;40.472;-3.878;2023-05-16T08:15:27;2.80;;;1.83;;
7905;SDS011;13291;40.472;-3.878;2023-05-16T08:17:55;2.73;;;1.60;;
7905;SDS011;13291;40.472;-3.878;2023-05-16T08:20:23;5.80;;;2.10;;
7905;SDS011;13291;40.472;-3.878;2023-05-16T08:22:50;3.47;;;2.40;;
7905;SDS011;13291;40.472;-3.878;2023-05-16T08:25:17;2.90;;;2.00;;
7905;SDS011;13291;40.472;-3.878;2023-05-16T08:27:44;3.47;;;2.20;;
7905;SDS011;13291;40.472;-3.878;2023-05-16T08:30:11;2.70;;;1.73;;
7905;SDS011;13291;40.472;-3.878;2023-05-16T08:32:40;2.70;;;1.67;;
7905;SDS011;13291;40.472;-3.878;2023-05-16T08:35:07;2.50;;;1.87;;
7905;SDS011;13291;40.472;-3.878;2023-05-16T08:37:35;3.10;;;1.90;;
7905;SDS011;13291;40.472;-3.878;2023-05-16T08:40:03;2.70;;;1.60;;
7905;SDS011;13291;40.472;-3.878;2023-05-16T08:42:32;3.17;;;1.70;;
7905;SDS011;13291;40.472;-3.878;2023-05-16T08:45:00;2.53;;;1.87;;
7905;SDS011;13291;40.472;-3.878;2023-05-16T08:47:28;4.00;;;2.00;;
7905;SDS011;13291;40.472;-3.878;2023-05-16T08:49:58;2.07;;;1.77;;
7905;SDS011;13291;40.472;-3.878;2023-05-16T08:52:29;2.10;;;1.63;;
7905;SDS011;13291;40.472;-3.878;2023-05-16T08:54:58;2.60;;;1.77;;
7905;SDS011;13291;40.472;-3.878;2023-05-16T08:57:32;3.00;;;2.10;;
7905;SDS011;13291;40.472;-3.878;2023-05-16T08:59:59;3.37;;;2.00;;
7905;SDS011;13291;40.472;-3.878;2023-05-16T09:02:31;3.30;;;2.00;;
7905;SDS011;13291;40.472;-3.878;2023-05-16T09:04:59;3.70;;;2.20;;
7905;SDS011;13291;40.472;-3.878;2023-05-16T09:07:28;3.60;;;2.60;;
7905;SDS011;13291;40.472;-3.878;2023-05-16T09:09:55;5.13;;;2.53;;
7905;SDS011;13291;40.472;-3.878;2023-05-16T09:12:22;3.70;;;2.40;;
7905;SDS011;13291;40.472;-3.878;2023-05-16T09:14:50;2.97;;;2.47;;
7905;SDS011;13291;40.472;-3.878;2023-05-16T09:17:17;4.37;;;2.30;;
7905;SDS011;13291;40.472;-3.878;2023-05-16T09:19:44;3.30;;;2.10;;
7905;SDS011;13291;40.472;-3.878;2023-05-16T09:22:14;2.80;;;1.80;;
7905;SDS011;13291;40.472;-3.878;2023-05-16T09:24:41;5.77;;;1.87;;
7905;SDS011;13291;40.472;-3.878;2023-05-16T09:27:09;4.10;;;2.40;;
7905;SDS011;13291;40.472;-3.878;2023-05-16T09:29:38;6.60;;;3.40;;
7905;SDS011;13291;40.472;-3.878;2023-05-16T09:32:09;8.13;;;2.80;;
7905;SDS011;13291;40.472;-3.878;2023-05-16T09:34:38;4.80;;;2.23;;
7905;SDS011;13291;40.472;-3.878;2023-05-16T09:37:08;7.33;;;2.60;;
7905;SDS011;13291;40.472;-3.878;2023-05-16T09:39:39;5.87;;;2.30;;
7905;SDS011;13291;40.472;-3.878;2023-05-16T09:42:12;3.67;;;2.53;;
7905;SDS011;13291;40.472;-3.878;2023-05-16T09:44:39;3.47;;;2.70;;
7905;SDS011;13291;40.472;-3.878;2023-05-16T09:47:06;2.97;;;2.57;;
7905;SDS011;13291;40.472;-3.878;2023-05-16T09:49:35;3.07;;;2.37;;
7905;SDS011;13291;40.472;-3.878;2023-05-16T09:52:03;4.57;;;2.77;;
7905;SDS011;13291;40.472;-3.878;2023-05-16T09:54:30;7.23;;;4.07;;
7905;SDS011;13291;40.472;-3.878;2023-05-16T09:56:59;4.43;;;2.60;;
7905;SDS011;13291;40.472;-3.878;2023-05-16T09:59:27;3.60;;;2.80;;
7905;SDS011;13291;40.472;-3.878;2023-05-16T10:01:56;3.50;;;2.03;;
7905;SDS011;13291;40.472;-3.878;2023-05-16T10:04:24;3.50;;;2.70;;
7905;SDS011;13291;40.472;-3.878;2023-05-16T10:06:51;4.37;;;2.90;;
7905;SDS011;13291;40.472;-3.878;2023-05-16T10:09:20;6.07;;;2.77;;
7905;SDS011;13291;40.472;-3.878;2023-05-16T10:11:48;4.43;;;3.07;;
7905;SDS011;13291;40.472;-3.878;2023-05-16T10:14:18;4.60;;;3.10;;
7905;SDS011;13291;40.472;-3.878;2023-05-16T10:16:47;4.70;;;3.43;;
7905;SDS011;13291;40.472;-3.878;2023-05-16T10:19:14;3.83;;;2.70;;
7905;SDS011;13291;40.472;-3.878;2023-05-16T10:21:44;6.90;;;3.43;;
7905;SDS011;13291;40.472;-3.878;2023-05-16T10:24:16;4.50;;;3.20;;
7905;SDS011;13291;40.472;-3.878;2023-05-16T10:26:48;4.90;;;3.00;;
7905;SDS011;13291;40.472;-3.878;2023-05-16T10:29:18;7.80;;;3.30;;
7905;SDS011;13291;40.472;-3.878;2023-05-16T10:31:46;4.80;;;3.00;;
7905;SDS011;13291;40.472;-3.878;2023-05-16T10:34:14;5.27;;;3.70;;
7905;SDS011;13291;40.472;-3.878;2023-05-16T10:36:42;4.53;;;3.03;;
7905;SDS011;13291;40.472;-3.878;2023-05-16T10:39:10;5.30;;;4.03;;
7905;SDS011;13291;40.472;-3.878;2023-05-16T10:41:39;4.93;;;2.70;;
7905;SDS011;13291;40.472;-3.878;2023-05-16T10:44:11;5.20;;;3.53;;
7905;SDS011;13291;40.472;-3.878;2023-05-16T10:46:41;5.50;;;3.30;;
7905;SDS011;13291;40.472;-3.878;2023-05-16T10:49:21;4.00;;;3.27;;
7905;SDS011;13291;40.472;-3.878;2023-05-16T10:52:00;11.90;;;4.33;;
7905;SDS011;13291;40.472;-3.878;2023-05-16T10:54:36;14.23;;;4.50;;
7905;SDS011;13291;40.472;-3.878;2023-05-16T10:57:08;9.70;;;3.83;;
7905;SDS011;13291;40.472;-3.878;2023-05-16T10:59:43;5.03;;;3.53;;
7905;SDS011;13291;40.472;-3.878;2023-05-16T11:02:22;7.43;;;3.53;;
7905;SDS011;13291;40.472;-3.878;2023-05-16T11:04:50;10.60;;;4.23;;
7905;SDS011;13291;40.472;-3.878;2023-05-16T11:07:18;4.27;;;3.50;;
7905;SDS011;13291;40.472;-3.878;2023-05-16T11:09:52;5.50;;;3.10;;
7905;SDS011;13291;40.472;-3.878;2023-05-16T11:12:35;5.97;;;3.97;;
7905;SDS011;13291;40.472;-3.878;2023-05-16T11:15:17;4.67;;;3.30;;
7905;SDS011;13291;40.472;-3.878;2023-05-16T11:17:50;7.00;;;4.07;;
7905;SDS011;13291;40.472;-3.878;2023-05-16T11:20:29;3.73;;;3.33;;
7905;SDS011;13291;40.472;-3.878;2023-05-16T11:25:51;4.33;;;3.00;;
7905;SDS011;13291;40.472;-3.878;2023-05-16T11:28:19;4.00;;;3.23;;
7905;SDS011;13291;40.472;-3.878;2023-05-16T11:30:48;4.30;;;3.10;;
7905;SDS011;13291;40.472;-3.878;2023-05-16T11:33:17;5.30;;;3.00;;
7905;SDS011;13291;40.472;-3.878;2023-05-16T11:35:58;6.27;;;3.10;;
7905;SDS011;13291;40.472;-3.878;2023-05-16T11:38:28;4.67;;;2.93;;
7905;SDS011;13291;40.472;-3.878;2023-05-16T11:41:00;5.37;;;3.00;;
7905;SDS011;13291;40.472;-3.878;2023-05-16T11:43:28;4.43;;;3.27;;
7905;SDS011;13291;40.472;-3.878;2023-05-16T11:45:55;4.50;;;3.60;;
7905;SDS011;13291;40.472;-3.878;2023-05-16T11:48:24;7.17;;;3.50;;
7905;SDS011;13291;40.472;-3.878;2023-05-16T11:50:51;3.67;;;2.90;;
7905;SDS011;13291;40.472;-3.878;2023-05-16T11:53:18;3.57;;;2.90;;
7905;SDS011;13291;40.472;-3.878;2023-05-16T11:55:46;5.53;;;3.60;;
7905;SDS011;13291;40.472;-3.878;2023-05-16T11:58:16;3.10;;;2.60;;
7905;SDS011;13291;40.472;-3.878;2023-05-16T12:00:47;3.73;;;2.77;;
7905;SDS011;13291;40.472;-3.878;2023-05-16T12:03:16;3.33;;;2.60;;
7905;SDS011;13291;40.472;-3.878;2023-05-16T12:05:55;5.87;;;3.10;;
7905;SDS011;13291;40.472;-3.878;2023-05-16T12:08:22;4.73;;;3.20;;
7905;SDS011;13291;40.472;-3.878;2023-05-16T12:10:49;4.97;;;3.17;;
7905;SDS011;13291;40.472;-3.878;2023-05-16T12:13:17;4.00;;;2.97;;
7905;SDS011;13291;40.472;-3.878;2023-05-16T12:15:45;3.40;;;2.83;;
7905;SDS011;13291;40.472;-3.878;2023-05-16T12:18:12;3.20;;;2.90;;
7905;SDS011;13291;40.472;-3.878;2023-05-16T12:20:40;3.80;;;3.20;;
7905;SDS011;13291;40.472;-3.878;2023-05-16T12:23:13;4.43;;;2.97;;
7905;SDS011;13291;40.472;-3.878;2023-05-16T12:25:43;3.93;;;3.27;;
7905;SDS011;13291;40.472;-3.878;2023-05-16T12:28:12;3.97;;;2.70;;
7905;SDS011;13291;40.472;-3.878;2023-05-16T12:30:40;4.47;;;3.00;;
7905;SDS011;13291;40.472;-3.878;2023-05-16T12:33:09;3.97;;;3.17;;
7905;SDS011;13291;40.472;-3.878;2023-05-16T12:35:37;3.30;;;3.00;;
7905;SDS011;13291;40.472;-3.878;2023-05-16T12:38:06;3.50;;;3.10;;
7905;SDS011;13291;40.472;-3.878;2023-05-16T12:40:36;3.37;;;2.97;;
7905;SDS011;13291;40.472;-3.878;2023-05-16T12:43:04;4.63;;;3.10;;
7905;SDS011;13291;40.472;-3.878;2023-05-16T12:45:38;5.40;;;3.47;;
7905;SDS011;13291;40.472;-3.878;2023-05-16T12:48:10;4.77;;;3.30;;
7905;SDS011;13291;40.472;-3.878;2023-05-16T12:50:38;4.90;;;3.10;;
7905;SDS011;13291;40.472;-3.878;2023-05-16T12:53:09;4.57;;;4.10;;
7905;SDS011;13291;40.472;-3.878;2023-05-16T12:55:38;5.17;;;3.77;;
7905;SDS011;13291;40.472;-3.878;2023-05-16T12:58:05;3.43;;;2.80;;
7905;SDS011;13291;40.472;-3.878;2023-05-16T13:00:33;6.13;;;3.50;;
7905;SDS011;13291;40.472;-3.878;2023-05-16T13:03:00;5.03;;;3.60;;
7905;SDS011;13291;40.472;-3.878;2023-05-16T13:05:27;3.33;;;2.83;;
7905;SDS011;13291;40.472;-3.878;2023-05-16T13:07:54;3.93;;;3.50;;
7905;SDS011;13291;40.472;-3.878;2023-05-16T13:10:21;7.17;;;3.83;;
7905;SDS011;13291;40.472;-3.878;2023-05-16T13:12:51;4.80;;;3.43;;
7905;SDS011;13291;40.472;-3.878;2023-05-16T13:15:18;4.30;;;3.20;;
7905;SDS011;13291;40.472;-3.878;2023-05-16T13:17:45;5.40;;;3.47;;
7905;SDS011;13291;40.472;-3.878;2023-05-16T13:20:12;4.50;;;3.03;;
7905;SDS011;13291;40.472;-3.878;2023-05-16T13:22:39;3.77;;;3.10;;
7905;SDS011;13291;40.472;-3.878;2023-05-16T13:25:07;3.73;;;2.90;;
7905;SDS011;13291;40.472;-3.878;2023-05-16T13:27:36;4.93;;;3.50;;
7905;SDS011;13291;40.472;-3.878;2023-05-16T13:30:05;5.07;;;3.43;;
7905;SDS011;13291;40.472;-3.878;2023-05-16T13:32:32;4.00;;;3.17;;
7905;SDS011;13291;40.472;-3.878;2023-05-16T13:34:59;5.43;;;3.80;;
7905;SDS011;13291;40.472;-3.878;2023-05-16T13:37:28;3.60;;;3.10;;
7905;SDS011;13291;40.472;-3.878;2023-05-16T13:39:55;4.27;;;3.07;;
7905;SDS011;13291;40.472;-3.878;2023-05-16T13:42:22;3.77;;;3.07;;
7905;SDS011;13291;40.472;-3.878;2023-05-16T13:44:49;5.67;;;3.30;;
7905;SDS011;13291;40.472;-3.878;2023-05-16T13:47:17;6.47;;;2.73;;
7905;SDS011;13291;40.472;-3.878;2023-05-16T13:49:45;4.13;;;2.90;;
7905;SDS011;13291;40.472;-3.878;2023-05-16T13:52:12;3.67;;;3.10;;
7905;SDS011;13291;40.472;-3.878;2023-05-16T13:54:39;5.13;;;3.37;;
7905;SDS011;13291;40.472;-3.878;2023-05-16T13:57:06;5.40;;;3.53;;
7905;SDS011;13291;40.472;-3.878;2023-05-16T13:59:33;3.90;;;3.23;;
7905;SDS011;13291;40.472;-3.878;2023-05-16T14:02:00;4.80;;;3.50;;
7905;SDS011;13291;40.472;-3.878;2023-05-16T14:04:28;3.30;;;2.97;;
7905;SDS011;13291;40.472;-3.878;2023-05-16T14:06:55;4.70;;;3.57;;
7905;SDS011;13291;40.472;-3.878;2023-05-16T14:09:22;3.10;;;2.80;;
7905;SDS011;13291;40.472;-3.878;2023-05-16T14:11:49;3.70;;;3.10;;
7905;SDS011;13291;40.472;-3.878;2023-05-16T14:14:16;5.13;;;3.20;;
7905;SDS011;13291;40.472;-3.878;2023-05-16T14:16:43;4.20;;;3.37;;
7905;SDS011;13291;40.472;-3.878;2023-05-16T14:19:10;5.10;;;3.10;;
7905;SDS011;13291;40.472;-3.878;2023-05-16T14:21:38;7.60;;;3.37;;
7905;SDS011;13291;40.472;-3.878;2023-05-16T14:24:06;9.10;;;4.00;;
7905;SDS011;13291;40.472;-3.878;2023-05-16T14:26:33;5.17;;;3.83;;
7905;SDS011;13291;40.472;-3.878;2023-05-16T14:29:00;6.53;;;3.60;;
7905;SDS011;13291;40.472;-3.878;2023-05-16T14:31:27;4.17;;;3.40;;
7905;SDS011;13291;40.472;-3.878;2023-05-16T14:33:54;3.30;;;3.00;;
7905;SDS011;13291;40.472;-3.878;2023-05-16T14:36:20;4.70;;;3.03;;
7905;SDS011;13291;40.472;-3.878;2023-05-16T14:38:49;6.50;;;3.27;;
7905;SDS011;13291;40.472;-3.878;2023-05-16T14:41:16;5.03;;;3.23;;
7905;SDS011;13291;40.472;-3.878;2023-05-16T14:43:43;5.10;;;3.97;;
7905;SDS011;13291;40.472;-3.878;2023-05-16T14:46:10;4.00;;;2.87;;
7905;SDS011;13291;40.472;-3.878;2023-05-16T14:48:37;4.30;;;2.90;;
7905;SDS011;13291;40.472;-3.878;2023-05-16T14:51:04;4.57;;;3.20;;
7905;SDS011;13291;40.472;-3.878;2023-05-16T14:53:32;5.30;;;3.30;;
7905;SDS011;13291;40.472;-3.878;2023-05-16T14:56:00;5.60;;;3.00;;
7905;SDS011;13291;40.472;-3.878;2023-05-16T14:58:28;3.90;;;2.70;;